Time;durP1;ratioP1;P1;durP2;ratioP2;P2;SDS_P1;SDS_P2;PMS_P1;PMS_P2;Temp;Humidity;BMP_temperature;BMP_pressure;BME280_temperature;BME280_humidity;BME280_pressure;Samples;Min_cycle;Max_cycle;Signal;HPM_P1;HPM_P2
2023/08/22 00:00:33;;;;;;;5.15;3.33;;;25.30;99.90;;;;;;4936402;29;20370;-63
2023/08/22 00:02:59;;;;;;;14.50;3.70;;;25.30;99.90;;;;;;4935795;29;20036;-62
2023/08/22 00:05:26;;;;;;;7.07;3.13;;;25.20;99.90;;;;;;4936046;29;20167;-62
2023/08/22 00:07:53;;;;;;;7.93;3.38;;;25.30;99.90;;;;;;4947144;28;20109;-62
2023/08/22 00:10:19;;;;;;;5.95;3.25;;;25.30;99.90;;;;;;4936063;29;20107;-62
2023/08/22 00:12:45;;;;;;;6.70;3.03;;;25.30;99.90;;;;;;4935367;29;20031;-62
2023/08/22 00:15:13;;;;;;;7.78;3.45;;;25.30;99.90;;;;;;4950384;28;20054;-62
2023/08/22 00:17:40;;;;;;;10.00;3.03;;;25.30;99.90;;;;;;4937335;29;20396;-62
2023/08/22 00:20:10;;;;;;;6.10;3.60;;;25.30;99.90;;;;;;4935914;29;20040;-62
2023/08/22 00:22:37;;;;;;;7.90;3.70;;;25.20;99.90;;;;;;4936998;29;20027;-62
2023/08/22 00:25:04;;;;;;;7.82;3.35;;;25.10;99.90;;;;;;4950512;28;20119;-62
2023/08/22 00:27:30;;;;;;;5.88;3.67;;;25.10;99.90;;;;;;4934035;29;20524;-62
2023/08/22 00:29:57;;;;;;;6.68;2.92;;;25.10;99.90;;;;;;4934616;29;20095;-62
2023/08/22 00:32:26;;;;;;;12.90;4.07;;;25.00;99.90;;;;;;4935283;29;20526;-62
2023/08/22 00:34:52;;;;;;;5.72;3.00;;;25.10;99.90;;;;;;4935323;29;20070;-62
2023/08/22 00:37:19;;;;;;;6.28;3.45;;;25.10;99.90;;;;;;4946698;28;20485;-62
2023/08/22 00:39:45;;;;;;;8.15;3.13;;;25.00;99.90;;;;;;4946147;29;20062;-62
2023/08/22 00:42:11;;;;;;;8.23;4.05;;;25.10;99.90;;;;;;4933807;29;20484;-62
2023/08/22 00:44:36;;;;;;;7.22;4.10;;;25.10;99.90;;;;;;4935190;29;20083;-62
2023/08/22 00:47:03;;;;;;;12.40;4.10;;;25.10;99.90;;;;;;4931966;29;20110;-62
2023/08/22 00:49:29;;;;;;;9.77;4.25;;;25.10;99.90;;;;;;4935486;29;20035;-62
2023/08/22 00:51:58;;;;;;;5.18;3.58;;;25.00;99.90;;;;;;4933451;29;20156;-62
2023/08/22 00:54:26;;;;;;;5.75;4.18;;;25.00;99.90;;;;;;4935073;29;20067;-62
2023/08/22 00:56:53;;;;;;;6.75;3.65;;;25.00;99.90;;;;;;4936196;29;20043;-62
2023/08/22 00:59:19;;;;;;;5.63;3.38;;;24.90;99.90;;;;;;4949879;29;20440;-62
2023/08/22 01:01:46;;;;;;;7.80;4.07;;;24.90;99.90;;;;;;4935248;29;20040;-62
2023/08/22 01:04:12;;;;;;;6.32;4.22;;;24.90;99.90;;;;;;4931142;29;20134;-62
2023/08/22 01:07:06;;;;;;;5.85;3.90;;;24.90;99.90;;;;;;4927316;29;20114;-62
2023/08/22 01:09:46;;;;;;;5.80;3.60;;;24.90;99.90;;;;;;4927850;29;20130;-62
2023/08/22 01:12:50;;;;;;;5.30;3.80;;;24.90;99.90;;;;;;4930261;29;20044;-62
2023/08/22 01:15:27;;;;;;;6.68;3.92;;;24.80;99.90;;;;;;4941407;28;20819;-62
2023/08/22 01:17:56;;;;;;;5.38;3.38;;;24.80;99.90;;;;;;4945425;28;20040;-62
2023/08/22 01:20:22;;;;;;;7.60;3.55;;;24.80;99.90;;;;;;4933548;29;20032;-62
2023/08/22 01:22:48;;;;;;;6.95;3.83;;;24.80;99.90;;;;;;4933791;29;20035;-62
2023/08/22 01:25:14;;;;;;;7.90;3.92;;;24.80;99.90;;;;;;4934338;29;20055;-62
2023/08/22 01:28:05;;;;;;;6.80;3.80;;;24.80;99.90;;;;;;4934251;29;20531;-62
2023/08/22 01:30:43;;;;;;;;;;;24.70;99.90;;;;;;4916299;29;20047;-62
2023/08/22 01:33:46;;;;;;;56.38;25.38;;;24.70;99.90;;;;;;4931816;29;19918;-62
2023/08/22 01:36:13;;;;;;;528.28;321.35;;;24.70;99.90;;;;;;4935184;28;20040;-62
2023/08/22 01:38:42;;;;;;;545.97;369.80;;;24.60;99.90;;;;;;4933062;29;20041;-62
2023/08/22 01:41:08;;;;;;;7.38;4.07;;;24.70;99.90;;;;;;4948398;28;20023;-62
2023/08/22 01:43:34;;;;;;;544.55;377.52;;;24.60;99.90;;;;;;4932716;29;20042;-62
2023/08/22 01:46:00;;;;;;;559.47;403.77;;;24.70;99.90;;;;;;4948674;28;20036;-62
2023/08/22 01:48:25;;;;;;;567.85;408.17;;;24.70;99.90;;;;;;4948747;29;20436;-62
2023/08/22 01:50:51;;;;;;;604.97;518.10;;;24.70;99.90;;;;;;4935571;29;20031;-62
2023/08/22 01:53:17;;;;;;;597.53;495.55;;;24.60;99.90;;;;;;4930141;28;20039;-62
2023/08/22 01:55:43;;;;;;;602.58;508.35;;;24.60;99.90;;;;;;4933812;29;20046;-62
2023/08/22 01:58:11;;;;;;;599.50;504.48;;;24.60;99.90;;;;;;4934801;29;20094;-62
2023/08/22 02:00:41;;;;;;;599.45;491.52;;;24.60;99.90;;;;;;4949825;23;20107;-62
2023/08/22 02:03:06;;;;;;;757.95;681.67;;;24.60;99.90;;;;;;4983728;28;20549;-59
2023/08/22 02:05:32;;;;;;;604.92;504.05;;;24.60;99.90;;;;;;4991783;28;20030;-59
2023/08/22 02:08:00;;;;;;;594.22;485.88;;;24.40;99.90;;;;;;4989070;28;20268;-59
2023/08/22 02:10:26;;;;;;;594.03;480.30;;;24.40;99.90;;;;;;4991699;28;20049;-60
2023/08/22 02:12:51;;;;;;;578.90;441.35;;;24.30;99.90;;;;;;4988531;28;20545;-59
2023/08/22 02:15:19;;;;;;;585.88;454.63;;;24.20;99.90;;;;;;5000421;28;20038;-59
2023/08/22 02:17:46;;;;;;;590.97;470.75;;;24.10;99.90;;;;;;4991860;28;20129;-59
2023/08/22 02:20:12;;;;;;;590.05;459.35;;;24.00;99.90;;;;;;4991398;28;20505;-59
2023/08/22 02:22:41;;;;;;;610.38;492.75;;;23.70;99.90;;;;;;4988567;28;20070;-60
2023/08/22 02:25:08;;;;;;;593.65;463.25;;;23.50;99.90;;;;;;4990133;28;20034;-60
2023/08/22 02:27:34;;;;;;;587.85;452.35;;;23.50;99.90;;;;;;4989841;28;20081;-60
2023/08/22 02:30:00;;;;;;;574.75;412.42;;;23.50;99.90;;;;;;4991392;28;20030;-60
2023/08/22 02:32:26;;;;;;;575.08;418.27;;;23.50;99.90;;;;;;4988854;28;20033;-60
2023/08/22 02:34:51;;;;;;;564.28;393.25;;;23.50;99.90;;;;;;4991250;28;20063;-60
2023/08/22 02:37:17;;;;;;;554.85;375.70;;;23.60;99.90;;;;;;4990082;28;20137;-60
2023/08/22 02:39:43;;;;;;;573.65;420.83;;;23.70;99.90;;;;;;4990765;28;20030;-60
2023/08/22 02:42:08;;;;;;;562.95;389.58;;;23.70;99.90;;;;;;4988967;28;20550;-60
2023/08/22 02:44:34;;;;;;;569.60;408.13;;;23.70;99.90;;;;;;4991040;28;20085;-60
2023/08/22 02:47:00;;;;;;;572.47;416.92;;;23.80;99.90;;;;;;4990142;28;20402;-60
2023/08/22 02:49:25;;;;;;;584.75;449.05;;;24.00;99.90;;;;;;4991097;28;20041;-60
2023/08/22 02:51:51;;;;;;;584.30;444.77;;;24.00;99.90;;;;;;4988825;28;20034;-60
2023/08/22 02:54:17;;;;;;;585.35;449.58;;;23.90;99.90;;;;;;4990513;28;20065;-60
2023/08/22 02:56:42;;;;;;;592.42;468.13;;;23.90;99.90;;;;;;4988907;28;20039;-60
2023/08/22 02:59:08;;;;;;;595.42;479.67;;;24.00;99.90;;;;;;4990885;28;20038;-60
2023/08/22 03:01:34;;;;;;;599.03;483.27;;;24.00;99.90;;;;;;4988759;28;20038;-60
2023/08/22 03:04:00;;;;;;;600.28;495.58;;;23.90;99.90;;;;;;4989009;28;20048;-60
2023/08/22 03:06:25;;;;;;;607.28;508.77;;;23.80;99.90;;;;;;4998359;28;20034;-60
2023/08/22 03:08:51;;;;;;;621.80;536.85;;;23.70;99.90;;;;;;4994001;28;20038;-60
2023/08/22 03:11:17;;;;;;;611.95;520.83;;;23.40;99.90;;;;;;4988449;28;20104;-60
2023/08/22 03:13:43;;;;;;;608.72;514.50;;;23.30;99.90;;;;;;4990555;28;20083;-60
2023/08/22 03:16:09;;;;;;;606.92;496.45;;;23.10;99.90;;;;;;5000577;28;20506;-60
2023/08/22 03:18:35;;;;;;;603.15;487.05;;;23.00;99.90;;;;;;4990785;28;20034;-60
2023/08/22 03:21:00;;;;;;;604.10;479.42;;;23.10;99.90;;;;;;4994093;28;20027;-60
2023/08/22 03:23:26;;;;;;;605.60;490.05;;;23.10;99.90;;;;;;4991254;28;20026;-60
2023/08/22 03:26:13;;;;;;;606.10;485.52;;;23.10;99.90;;;;;;4993308;28;20069;-59
2023/08/22 03:28:39;;;;;;;596.55;460.95;;;23.00;99.90;;;;;;4993758;28;20038;-59
2023/08/22 03:31:05;;;;;;;593.67;460.52;;;22.90;99.90;;;;;;4992179;28;20034;-60
2023/08/22 03:33:33;;;;;;;605.55;471.10;;;22.80;99.90;;;;;;4994046;28;20483;-60
2023/08/22 03:35:59;;;;;;;613.53;493.75;;;22.70;99.90;;;;;;4990882;28;20402;-59
2023/08/22 03:38:25;;;;;;;591.58;435.90;;;22.60;99.90;;;;;;4987263;28;20022;-59
2023/08/22 03:40:56;;;;;;;603.85;471.45;;;22.80;99.90;;;;;;4991899;28;20034;-59
2023/08/22 03:43:21;;;;;;;603.13;476.48;;;22.80;99.90;;;;;;4992592;28;20030;-59
2023/08/22 03:45:48;;;;;;;600.65;464.25;;;22.80;99.90;;;;;;4992825;28;20118;-59
2023/08/22 03:48:14;;;;;;;603.10;482.60;;;22.80;99.90;;;;;;4961080;28;20042;-59
2023/08/22 03:50:41;;;;;;;601.25;470.60;;;22.80;99.90;;;;;;5014256;28;20022;-60
2023/08/22 03:53:08;;;;;;;604.53;474.75;;;22.60;99.90;;;;;;4991717;28;20501;-60
2023/08/22 03:55:34;;;;;;;611.97;479.40;;;22.50;99.90;;;;;;4989884;28;20042;-67
2023/08/22 03:58:02;;;;;;;599.67;454.85;;;22.60;99.90;;;;;;4991137;28;20434;-66
2023/08/22 04:00:27;;;;;;;7.15;4.47;;;22.40;99.90;;;;;;4990631;28;20037;-66
2023/08/22 04:02:55;;;;;;;8.98;5.38;;;22.40;99.90;;;;;;4987033;28;20088;-66
2023/08/22 04:05:22;;;;;;;13.38;6.00;;;22.60;99.90;;;;;;4983905;28;20031;-66
2023/08/22 04:07:48;;;;;;;8.63;5.68;;;22.70;99.90;;;;;;5015737;28;20603;-66
2023/08/22 04:10:15;;;;;;;8.05;5.13;;;22.80;99.90;;;;;;5011750;28;20041;-66
2023/08/22 04:12:40;;;;;;;10.68;5.90;;;22.80;99.90;;;;;;5016822;28;20034;-66
2023/08/22 04:15:07;;;;;;;7.88;5.32;;;22.60;99.90;;;;;;4999574;28;20034;-66
2023/08/22 04:17:34;;;;;;;6.93;4.75;;;22.40;99.90;;;;;;4984743;28;20022;-67
2023/08/22 04:19:59;;;;;;;10.40;5.78;;;22.20;99.90;;;;;;4983122;28;20062;-66
2023/08/22 04:22:26;;;;;;;19.02;6.25;;;22.30;99.90;;;;;;4982056;28;20463;-66
2023/08/22 04:24:51;;;;;;;10.63;6.15;;;22.10;99.90;;;;;;4991855;28;20050;-66
2023/08/22 04:27:18;;;;;;;8.93;5.88;;;22.20;99.90;;;;;;4986141;28;20073;-66
2023/08/22 04:29:44;;;;;;;11.20;6.20;;;22.40;99.90;;;;;;4993494;28;20537;-66
2023/08/22 04:32:09;;;;;;;8.80;5.38;;;22.40;99.90;;;;;;4991419;28;20038;-66
2023/08/22 04:34:35;;;;;;;10.43;5.88;;;22.40;99.90;;;;;;4992696;28;20088;-65
2023/08/22 04:37:01;;;;;;;8.02;5.35;;;22.40;99.90;;;;;;4991057;28;20402;-66
2023/08/22 04:39:26;;;;;;;14.10;5.72;;;22.30;99.90;;;;;;4993141;28;20098;-66
2023/08/22 04:41:52;;;;;;;13.00;8.25;;;22.30;99.90;;;;;;4990522;28;20080;-66
2023/08/22 04:44:18;;;;;;;15.32;6.70;;;22.40;99.90;;;;;;4985358;28;20038;-66
2023/08/22 04:46:44;;;;;;;16.02;10.00;;;22.20;99.90;;;;;;4985535;28;20038;-66
2023/08/22 04:49:09;;;;;;;18.55;8.73;;;22.20;99.90;;;;;;4993266;28;20486;-65
2023/08/22 04:51:35;;;;;;;22.77;12.13;;;22.40;99.90;;;;;;4991013;28;20058;-66
2023/08/22 04:54:01;;;;;;;10.20;6.13;;;22.40;99.90;;;;;;4984570;28;20067;-65
2023/08/22 04:56:26;;;;;;;12.45;7.30;;;22.50;99.90;;;;;;4992354;28;20037;-65
2023/08/22 04:58:52;;;;;;;12.02;5.75;;;22.30;99.90;;;;;;4991910;28;20180;-65
2023/08/22 05:01:18;;;;;;;9.82;5.85;;;22.20;99.90;;;;;;4992546;28;20026;-66
2023/08/22 05:03:45;;;;;;;11.18;6.82;;;22.20;99.90;;;;;;4990271;28;20030;-65
2023/08/22 05:06:11;;;;;;;12.02;6.93;;;22.20;99.90;;;;;;4992472;28;20035;-65
2023/08/22 05:08:37;;;;;;;14.70;6.55;;;22.30;99.90;;;;;;4990910;28;20034;-65
2023/08/22 05:11:03;;;;;;;15.25;6.57;;;22.30;99.90;;;;;;4992431;28;20030;-65
2023/08/22 05:13:28;;;;;;;11.57;6.20;;;22.30;99.90;;;;;;4987729;28;20035;-65
2023/08/22 05:15:54;;;;;;;15.00;6.30;;;22.40;99.90;;;;;;4989336;28;20038;-65
2023/08/22 05:18:20;;;;;;;10.82;7.00;;;22.30;99.90;;;;;;4992268;28;20062;-65
2023/08/22 05:20:48;;;;;;;13.73;6.43;;;22.40;99.90;;;;;;4990155;28;20364;-67
2023/08/22 05:23:14;;;;;;;9.55;5.65;;;22.40;99.90;;;;;;4987031;28;20029;-65
2023/08/22 05:25:40;;;;;;;10.80;6.07;;;22.50;99.90;;;;;;4982646;28;21821;-66
2023/08/22 05:28:05;;;;;;;9.60;5.72;;;22.40;99.90;;;;;;4984070;28;20042;-67
2023/08/22 05:30:31;;;;;;;11.05;5.82;;;22.50;99.90;;;;;;4982261;28;20105;-65
2023/08/22 05:32:57;;;;;;;10.60;6.05;;;22.50;99.90;;;;;;4988812;28;20042;-60
2023/08/22 05:35:23;;;;;;;13.38;6.30;;;22.60;99.90;;;;;;4987700;28;20092;-62
2023/08/22 05:37:48;;;;;;;9.20;5.50;;;22.70;99.90;;;;;;4988041;28;20486;-53
2023/08/22 05:40:14;;;;;;;9.93;5.97;;;22.50;99.90;;;;;;4987926;28;20455;-54
2023/08/22 05:42:40;;;;;;;12.57;5.63;;;22.70;99.90;;;;;;4986567;28;20033;-57
2023/08/22 05:45:07;;;;;;;8.73;5.28;;;23.00;99.90;;;;;;4990031;28;20089;-55
2023/08/22 05:47:33;;;;;;;12.73;5.45;;;23.20;99.90;;;;;;4984050;28;20018;-54
2023/08/22 05:49:58;;;;;;;8.32;4.93;;;23.50;99.90;;;;;;4990904;28;20599;-54
2023/08/22 05:52:25;;;;;;;10.63;5.03;;;23.80;99.90;;;;;;4984472;28;20030;-55
2023/08/22 05:54:51;;;;;;;6.60;3.55;;;24.00;99.90;;;;;;4991793;28;20121;-56
2023/08/22 05:57:16;;;;;;;9.88;4.80;;;24.00;99.90;;;;;;4983030;28;20126;-55
2023/08/22 05:59:42;;;;;;;10.27;4.30;;;24.20;99.90;;;;;;4990521;28;20032;-53
2023/08/22 06:02:08;;;;;;;7.13;4.40;;;24.30;99.90;;;;;;4987229;28;20065;-55
2023/08/22 06:04:33;;;;;;;11.07;4.22;;;24.50;99.90;;;;;;4991728;28;20038;-54
2023/08/22 06:06:59;;;;;;;7.72;4.15;;;24.60;99.90;;;;;;4982467;28;20026;-56
2023/08/22 06:09:25;;;;;;;8.98;3.97;;;24.70;99.90;;;;;;4983232;28;20506;-55
2023/08/22 06:11:51;;;;;;;8.98;4.20;;;24.70;99.90;;;;;;4993781;28;20041;-53
2023/08/22 06:14:16;;;;;;;7.50;3.45;;;24.80;99.90;;;;;;4991301;28;20041;-52
2023/08/22 06:16:42;;;;;;;7.72;3.33;;;25.00;99.90;;;;;;4983136;28;20034;-54
2023/08/22 06:19:08;;;;;;;6.85;3.83;;;25.00;99.90;;;;;;4991295;28;20030;-53
2023/08/22 06:21:33;;;;;;;9.68;3.95;;;25.00;99.90;;;;;;4990146;28;20066;-53
2023/08/22 06:23:59;;;;;;;7.38;3.78;;;24.80;99.90;;;;;;4990929;28;20088;-53
2023/08/22 06:26:25;;;;;;;5.47;3.70;;;24.80;99.90;;;;;;4983085;28;20177;-50
2023/08/22 06:28:50;;;;;;;6.88;4.20;;;24.70;99.90;;;;;;4991596;28;20116;-54
2023/08/22 06:31:16;;;;;;;8.45;4.32;;;24.60;99.90;;;;;;4987378;28;20034;-56
2023/08/22 06:33:42;;;;;;;6.30;3.83;;;24.50;99.90;;;;;;4985495;28;20031;-70
2023/08/22 06:36:08;;;;;;;8.05;4.15;;;24.20;99.90;;;;;;4987052;28;20034;-70
2023/08/22 06:38:33;;;;;;;6.57;3.75;;;24.20;99.90;;;;;;4982962;28;20184;-70
2023/08/22 06:41:06;;;;;;;6.55;3.42;;;24.20;99.90;;;;;;4989297;28;20117;-70
2023/08/22 06:43:32;;;;;;;7.43;3.60;;;24.10;99.90;;;;;;4985901;28;20034;-69
2023/08/22 06:45:58;;;;;;;7.97;4.03;;;24.10;99.90;;;;;;4986155;28;20112;-68
2023/08/22 06:48:23;;;;;;;7.43;3.92;;;24.20;99.90;;;;;;4984242;28;20170;-68
2023/08/22 06:50:49;;;;;;;7.90;3.58;;;24.20;99.90;;;;;;4985249;28;20117;-68
2023/08/22 06:53:15;;;;;;;6.38;3.22;;;24.40;99.90;;;;;;4986638;28;20036;-68
2023/08/22 06:55:44;;;;;;;8.30;3.70;;;24.40;99.90;;;;;;4984314;28;20034;-69
2023/08/22 06:58:10;;;;;;;9.45;3.60;;;24.60;99.90;;;;;;4991443;28;20042;-69
2023/08/22 07:00:36;;;;;;;6.90;3.53;;;24.60;99.90;;;;;;4995644;28;20030;-68
2023/08/22 07:03:02;;;;;;;5.13;3.08;;;24.60;99.90;;;;;;4994993;28;20031;-68
2023/08/22 07:05:28;;;;;;;5.93;4.00;;;24.60;99.90;;;;;;4990866;28;20038;-69
2023/08/22 07:07:53;;;;;;;6.28;3.33;;;24.50;99.90;;;;;;4997515;28;20057;-69
2023/08/22 07:10:19;;;;;;;4.53;2.80;;;24.60;99.90;;;;;;4995540;28;20556;-69
2023/08/22 07:12:45;;;;;;;4.82;3.22;;;24.60;99.90;;;;;;4997135;28;20034;-69
2023/08/22 07:15:11;;;;;;;6.93;3.20;;;24.50;99.90;;;;;;4990274;28;20105;-69
2023/08/22 07:17:37;;;;;;;6.88;2.85;;;24.70;99.90;;;;;;4997489;28;20034;-68
2023/08/22 07:20:03;;;;;;;5.30;3.47;;;24.70;99.90;;;;;;4995572;28;20026;-68
2023/08/22 07:22:29;;;;;;;6.90;4.25;;;24.80;99.90;;;;;;4996854;28;20118;-68
2023/08/22 07:24:55;;;;;;;6.35;3.20;;;24.80;99.90;;;;;;4990106;28;20030;-68
2023/08/22 07:27:22;;;;;;;6.68;3.20;;;24.80;99.90;;;;;;4997149;28;20470;-67
2023/08/22 07:29:48;;;;;;;4.75;3.22;;;24.90;99.90;;;;;;4979472;28;20034;-68
2023/08/22 07:32:13;;;;;;;7.85;3.17;;;24.80;99.90;;;;;;4995619;28;20104;-68
2023/08/22 07:34:39;;;;;;;6.18;3.85;;;25.10;99.90;;;;;;4986314;28;20041;-68
2023/08/22 07:37:05;;;;;;;6.35;3.42;;;25.20;99.90;;;;;;4986767;28;20038;-69
2023/08/22 07:39:30;;;;;;;7.80;3.95;;;25.20;99.90;;;;;;4989031;28;20033;-68
2023/08/22 07:41:56;;;;;;;5.03;3.10;;;25.30;99.90;;;;;;4992862;28;20050;-68
2023/08/22 07:44:23;;;;;;;5.53;3.60;;;25.20;99.90;;;;;;4982999;28;20042;-68
2023/08/22 07:46:50;;;;;;;6.65;3.10;;;25.20;99.90;;;;;;4994017;28;20037;-69
2023/08/22 07:49:16;;;;;;;9.02;4.28;;;25.30;99.90;;;;;;4996591;28;20517;-69
2023/08/22 07:51:42;;;;;;;11.45;4.78;;;25.20;99.90;;;;;;4994234;28;20042;-69
2023/08/22 07:54:08;;;;;;;7.68;3.45;;;25.10;99.90;;;;;;4993919;28;20715;-68
2023/08/22 07:56:35;;;;;;;8.15;3.70;;;25.20;99.90;;;;;;4995655;28;20113;-68
2023/08/22 07:59:01;;;;;;;6.90;3.78;;;25.30;99.90;;;;;;4994726;28;20154;-68
2023/08/22 08:01:27;;;;;;;7.45;4.20;;;25.30;99.90;;;;;;5007815;23;20077;-65
2023/08/22 08:03:53;;;;;;;12.98;4.28;;;25.30;99.90;;;;;;4990187;28;20486;-65
2023/08/22 08:06:19;;;;;;;6.88;3.75;;;25.40;99.90;;;;;;4977461;28;20179;-65
2023/08/22 08:08:44;;;;;;;6.60;3.50;;;25.40;99.90;;;;;;4992197;28;20037;-65
2023/08/22 08:11:10;;;;;;;7.93;3.85;;;25.50;99.90;;;;;;4991619;28;20094;-65
2023/08/22 08:13:36;;;;;;;7.07;4.10;;;25.60;99.90;;;;;;4973822;28;20027;-66
2023/08/22 08:16:02;;;;;;;5.90;3.55;;;25.70;99.90;;;;;;4972971;28;20042;-65
2023/08/22 08:18:28;;;;;;;9.25;4.00;;;25.80;99.90;;;;;;4972830;28;20122;-65
2023/08/22 08:20:53;;;;;;;8.38;3.55;;;25.90;99.90;;;;;;4974510;28;20034;-65
2023/08/22 08:23:19;;;;;;;7.53;3.75;;;26.00;99.90;;;;;;4969024;28;20031;-65
2023/08/22 08:25:45;;;;;;;7.75;3.53;;;26.00;99.90;;;;;;4973980;28;20034;-65
2023/08/22 08:28:11;;;;;;;6.40;3.80;;;26.10;99.90;;;;;;4967711;28;20035;-65
2023/08/22 08:30:36;;;;;;;12.40;3.65;;;26.20;99.90;;;;;;4974073;28;20117;-65
2023/08/22 08:33:03;;;;;;;8.02;3.40;;;26.20;99.90;;;;;;4972377;28;20053;-65
2023/08/22 08:35:30;;;;;;;4.93;3.40;;;26.30;99.90;;;;;;4973858;28;20042;-65
2023/08/22 08:37:57;;;;;;;8.10;3.47;;;26.40;99.90;;;;;;4967578;28;20541;-65
2023/08/22 08:40:22;;;;;;;6.30;3.85;;;26.50;99.90;;;;;;4974020;28;20553;-65
2023/08/22 08:42:49;;;;;;;9.27;4.28;;;26.60;99.90;;;;;;4971426;28;20038;-64
2023/08/22 08:45:16;;;;;;;11.10;4.05;;;26.70;99.90;;;;;;4973639;28;20037;-64
2023/08/22 08:47:42;;;;;;;8.77;3.80;;;26.70;99.90;;;;;;4967415;28;20113;-65
2023/08/22 08:50:09;;;;;;;9.60;3.65;;;26.80;99.90;;;;;;4956290;28;20033;-65
2023/08/22 08:52:35;;;;;;;4.30;2.85;;;26.90;99.90;;;;;;4950281;28;20465;-65
2023/08/22 08:55:04;;;;;;;7.93;3.10;;;27.10;99.90;;;;;;4971864;28;20033;-65
2023/08/22 08:57:32;;;;;;;5.15;3.72;;;27.20;99.90;;;;;;4967361;28;20122;-65
2023/08/22 09:00:00;;;;;;;7.65;3.28;;;27.30;99.90;;;;;;4971985;28;20388;-65
2023/08/22 09:02:28;;;;;;;7.53;4.30;;;27.30;99.90;;;;;;4966703;28;20130;-65
2023/08/22 09:04:53;;;;;;;5.65;3.10;;;27.40;99.90;;;;;;4971428;28;20025;-65
2023/08/22 09:07:19;;;;;;;6.88;3.25;;;27.50;99.90;;;;;;4991965;28;20042;-63
2023/08/22 09:09:45;;;;;;;7.07;3.20;;;27.50;99.90;;;;;;4971847;28;20042;-66
2023/08/22 09:12:11;;;;;;;3.97;3.05;;;27.60;99.90;;;;;;4971065;28;20062;-63
2023/08/22 09:14:47;;;;;;;5.53;2.58;;;27.70;99.90;;;;;;4973054;28;20158;-66
2023/08/22 09:17:17;;;;;;;4.53;2.63;;;27.60;99.90;;;;;;4966503;28;20118;-63
2023/08/22 09:19:44;;;;;;;3.93;2.43;;;27.70;99.90;;;;;;4962639;28;20101;-66
2023/08/22 09:22:15;;;;;;;4.53;2.08;;;28.00;99.90;;;;;;4962335;28;20035;-66
2023/08/22 09:24:50;;;;;;;;;;;28.00;99.90;;;;;;4973344;28;20034;-65
2023/08/22 09:27:22;;;;;;;7.18;2.65;;;28.00;99.90;;;;;;4969590;28;19939;-66
2023/08/22 09:29:47;;;;;;;4.72;2.58;;;28.10;99.90;;;;;;4971703;28;20493;-65
2023/08/22 09:32:13;;;;;;;4.03;1.92;;;28.20;99.90;;;;;;4970432;28;20035;-66
2023/08/22 09:35:00;;;;;;;2.90;1.88;;;28.30;99.90;;;;;;4971168;28;20034;-65
2023/08/22 09:37:35;;;;;;;4.82;2.22;;;28.40;99.90;;;;;;4969395;28;20046;-65
2023/08/22 09:40:07;;;;;;;4.80;2.75;;;28.50;99.90;;;;;;4972536;28;20085;-65
2023/08/22 09:42:39;;;;;;;7.20;1.98;;;28.60;99.90;;;;;;4954652;28;20034;-66
2023/08/22 09:45:07;;;;;;;3.00;1.30;;;28.50;99.90;;;;;;4972327;28;20034;-65
2023/08/22 09:47:40;;;;;;;4.88;1.65;;;28.80;99.10;;;;;;4969233;28;20047;-66
2023/08/22 09:50:07;;;;;;;2.65;1.40;;;28.90;98.20;;;;;;4971069;28;20030;-66
2023/08/22 09:52:38;;;;;;;5.22;1.70;;;29.00;97.60;;;;;;4971033;28;20043;-66
2023/08/22 09:55:06;;;;;;;3.42;1.50;;;29.00;98.00;;;;;;4971056;28;20130;-65
2023/08/22 09:57:33;;;;;;;1.92;1.05;;;29.20;97.50;;;;;;4970508;28;20043;-66
2023/08/22 10:00:00;;;;;;;2.45;1.27;;;29.30;96.70;;;;;;4972235;28;20066;-65
2023/08/22 10:02:28;;;;;;;1.70;1.10;;;29.20;97.10;;;;;;4969973;28;20035;-65
2023/08/22 10:04:54;;;;;;;2.20;1.20;;;29.30;97.10;;;;;;4970444;28;20372;-65
2023/08/22 10:07:21;;;;;;;2.33;1.40;;;29.40;96.10;;;;;;4970302;28;20121;-65
2023/08/22 10:09:46;;;;;;;2.13;1.10;;;29.40;96.60;;;;;;4970812;28;20039;-65
2023/08/22 10:12:16;;;;;;;5.70;1.67;;;29.50;96.30;;;;;;4970279;28;20034;-65
2023/08/22 10:14:50;;;;;;;5.63;1.90;;;29.50;97.00;;;;;;4972791;28;20041;-66
2023/08/22 10:17:16;;;;;;;4.25;1.67;;;29.60;96.60;;;;;;4970645;28;20031;-65
2023/08/22 10:19:43;;;;;;;10.25;2.20;;;29.50;96.50;;;;;;4971804;28;20065;-66
2023/08/22 10:22:12;;;;;;;4.47;1.50;;;29.70;96.90;;;;;;4968397;28;20031;-66
2023/08/22 10:24:39;;;;;;;3.33;1.60;;;30.00;97.00;;;;;;4970565;28;20027;-66
2023/08/22 10:27:12;;;;;;;5.95;1.90;;;30.20;96.00;;;;;;4968482;28;20101;-66
2023/08/22 10:29:46;;;;;;;2.70;1.60;;;30.50;95.70;;;;;;4954649;28;20038;-66
2023/08/22 10:32:12;;;;;;;2.80;1.77;;;30.40;95.30;;;;;;4967893;28;20137;-65
2023/08/22 10:34:37;;;;;;;1.85;1.33;;;30.60;94.50;;;;;;4971545;28;20114;-66
2023/08/22 10:37:06;;;;;;;2.65;1.40;;;30.60;94.10;;;;;;4968293;28;20067;-65
2023/08/22 10:39:40;;;;;;;3.90;1.63;;;30.70;94.60;;;;;;4971835;28;20059;-65
2023/08/22 10:42:08;;;;;;;8.60;2.63;;;31.00;94.40;;;;;;4968280;28;20032;-66
2023/08/22 10:44:36;;;;;;;2.35;1.63;;;31.10;94.20;;;;;;4970316;28;20113;-66
2023/08/22 10:47:17;;;;;;;3.60;1.40;;;31.40;94.60;;;;;;4970069;28;20058;-66
2023/08/22 10:49:43;;;;;;;1.45;1.20;;;31.50;93.20;;;;;;4971464;28;20360;-65
2023/08/22 10:52:12;;;;;;;3.60;1.38;;;31.50;92.90;;;;;;4970620;28;20512;-65
2023/08/22 10:55:06;;;;;;;2.03;1.25;;;31.10;92.50;;;;;;4966656;28;20031;-66
2023/08/22 10:57:35;;;;;;;4.50;1.52;;;31.30;92.20;;;;;;4957321;28;20055;-66
2023/08/22 11:00:21;;;;;;;2.78;1.60;;;31.40;92.40;;;;;;4971341;28;20054;-66
2023/08/22 11:02:59;;;;;;;2.83;1.75;;;31.80;92.60;;;;;;4969742;28;20046;-65
2023/08/22 11:05:29;;;;;;;2.28;1.23;;;32.00;91.80;;;;;;4964516;28;20031;-66
2023/08/22 11:07:55;;;;;;;3.15;1.27;;;32.20;91.50;;;;;;4969824;28;20483;-66
2023/08/22 11:10:26;;;;;;;1.58;0.93;;;32.40;90.10;;;;;;4971177;28;20034;-66
2023/08/22 11:12:55;;;;;;;1.75;0.77;;;32.50;87.50;;;;;;4967762;28;20614;-66
2023/08/22 11:15:21;;;;;;;2.28;0.82;;;32.50;84.20;;;;;;4963796;28;20026;-65
2023/08/22 11:17:50;;;;;;;2.35;1.15;;;32.20;82.60;;;;;;4966549;28;20519;-65
2023/08/22 11:20:21;;;;;;;2.50;0.98;;;32.20;81.60;;;;;;4969968;28;20027;-66
2023/08/22 11:22:46;;;;;;;1.38;0.73;;;32.30;82.90;;;;;;4967653;28;20030;-66
2023/08/22 11:25:13;;;;;;;1.00;0.68;;;32.60;79.00;;;;;;4971295;28;20477;-65
2023/08/22 11:27:41;;;;;;;1.42;0.73;;;32.80;76.40;;;;;;4968783;28;20394;-65
2023/08/22 11:30:09;;;;;;;1.20;0.50;;;33.00;75.60;;;;;;4970119;28;20034;-65
2023/08/22 11:32:40;;;;;;;3.22;0.60;;;33.30;73.10;;;;;;4969156;28;20041;-65
2023/08/22 11:35:08;;;;;;;1.20;0.80;;;33.60;72.50;;;;;;4969763;28;20026;-65
2023/08/22 11:37:39;;;;;;;2.30;0.80;;;33.80;72.00;;;;;;4969475;28;20043;-65
2023/08/22 11:40:08;;;;;;;1.13;0.68;;;33.70;68.10;;;;;;4970963;28;20094;-65
2023/08/22 11:42:35;;;;;;;1.80;0.85;;;33.40;67.00;;;;;;4968937;28;20045;-65
2023/08/22 11:45:04;;;;;;;1.25;0.50;;;33.10;67.50;;;;;;4971365;28;20062;-64
2023/08/22 11:47:49;;;;;;;1.70;0.73;;;33.20;67.50;;;;;;4972413;28;20404;-65
2023/08/22 11:50:29;;;;;;;1.23;0.68;;;33.30;67.00;;;;;;4973408;28;20513;-65
2023/08/22 11:52:56;;;;;;;;;;;33.60;67.30;;;;;;4971324;28;20038;-65
2023/08/22 11:55:32;;;;;;;1.50;0.80;;;33.80;66.50;;;;;;4974412;28;19910;-65
2023/08/22 11:58:04;;;;;;;1.50;0.80;;;33.80;66.70;;;;;;4965727;28;20065;-65
2023/08/22 12:00:34;;;;;;;1.60;0.73;;;33.90;66.10;;;;;;4973970;28;20030;-65
2023/08/22 12:03:05;;;;;;;2.22;0.95;;;34.20;66.00;;;;;;4952742;28;20023;-65
2023/08/22 12:05:39;;;;;;;1.35;0.73;;;34.40;64.50;;;;;;4954303;28;20034;-65
2023/08/22 12:08:10;;;;;;;4.30;0.57;;;34.60;63.60;;;;;;4965556;28;20035;-65
2023/08/22 12:10:43;;;;;;;1.15;0.63;;;34.90;63.00;;;;;;4973115;28;20030;-65
2023/08/22 12:13:10;;;;;;;1.73;0.60;;;34.90;62.20;;;;;;4972683;28;20625;-65
2023/08/22 12:15:37;;;;;;;0.85;0.40;;;34.80;61.40;;;;;;4983296;28;20038;-65
2023/08/22 12:18:04;;;;;;;1.50;0.70;;;34.60;61.80;;;;;;4954006;28;20085;-65
2023/08/22 12:20:34;;;;;;;2.75;0.82;;;34.60;62.50;;;;;;4974280;28;20031;-65
2023/08/22 12:23:01;;;;;;;1.05;0.55;;;34.40;62.40;;;;;;4967899;28;20039;-65
2023/08/22 12:25:27;;;;;;;5.90;0.70;;;34.10;62.00;;;;;;4969552;28;20158;-65
2023/08/22 12:27:53;;;;;;;0.93;0.50;;;33.60;62.80;;;;;;4967818;28;20485;-65
2023/08/22 12:30:19;;;;;;;1.35;0.80;;;33.50;64.90;;;;;;4972531;28;20054;-65
2023/08/22 12:32:45;;;;;;;3.00;0.80;;;34.30;63.40;;;;;;4971336;28;20114;-65
2023/08/22 12:35:12;;;;;;;2.10;0.80;;;34.40;62.10;;;;;;4973923;28;20023;-65
2023/08/22 12:37:38;;;;;;;1.52;0.93;;;33.80;63.50;;;;;;4971777;28;20130;-65
2023/08/22 12:40:11;;;;;;;1.50;0.57;;;33.60;62.90;;;;;;4972472;28;20043;-65